Hovedside
METAR-TAF:

METAR-TAF

Lufthavner :

Kemi-Torneå lufthavn

Kemi, Finland

breddegrad: 65-47N, lengdegrad: 024-35E, høyde over havet: 15 m

Gjeldene værobservasjon

Denne rapporten ble laget for 17 minutter siden, klokken 01:20 UTC
Vind 9 kt fra Nord-nordøst
Temperatur -1°C
Luftfuktighet 93%
Trykk 1013 hPa
Sikt 10 km eller mer
Overskyet i en høyde av 800 ft

METAR: EFKE 110120Z AUTO 02009KT 9999 OVC008 M01/M02 Q1013

Tid: 03:37 (01:37 UTC)

Varsel

Denne rapporten ble laget for 5 timer og 1 minutter siden, klokken 20:36 UTC
Varsel gyldig fra 10. klokken 21 UTC til 10. klokken 24 UTC
Vind 4 kt fra Nord
Sikt 10 km eller mer
Brutte skyer i en høyde av 900 ft
Midlertidig
fra 10. klokken 21 UTC til 10. klokken 24 UTC
Sikt: 7000 m
Brutte skyer i en høyde av 400 ft
lett snø

TAF: EFKE 102036Z 1021/1024 01004KT 9999 BKN009 TEMPO 1021/1024 7000 -SN BKN004

Værobservasjoner og værvarsel for over 4000 flyplasser (METAR- og TAF-rapporter).

Tilgjengelige stasjoner er representert av de røde og gule prikkene på kartet.

Hold musepekeren over prikken for å se navnet på stasjonen.

Klikk så for å se værobservasjoner og -varsler.

For å forandre kartet kan du klikke på den grønne knappen med svart kryss for å zoome inn, på den grønne knappen med strek for å zoome ut, eller på de grønne pilene for å se tilstøtende kart.


METAR-TAF: